Time;durP1;ratioP1;P1;durP2;ratioP2;P2;SDS_P1;SDS_P2;PMS_P1;PMS_P2;Temp;Humidity;BMP_temperature;BMP_pressure;BME280_temperature;BME280_humidity;BME280_pressure;Samples;Min_cycle;Max_cycle;Signal;HPM_P1;HPM_P2
2023/05/06 00:00:08;;;;;;;0.30;0.30;;;11.90;99.90;;;;;;5026941;28;20716;-76
2023/05/06 00:02:33;;;;;;;0.30;0.30;;;11.90;99.90;;;;;;5029597;28;20041;-75
2023/05/06 00:04:59;;;;;;;0.30;0.30;;;11.90;99.90;;;;;;5027379;28;20477;-76
2023/05/06 00:07:25;;;;;;;0.75;0.47;;;11.80;99.90;;;;;;5027997;28;20052;-74
2023/05/06 00:09:51;;;;;;;0.38;0.38;;;11.80;99.90;;;;;;5025821;28;21911;-73
2023/05/06 00:12:16;;;;;;;0.70;0.70;;;11.80;99.90;;;;;;5021218;28;20128;-74
2023/05/06 00:14:42;;;;;;;0.30;0.30;;;11.70;99.90;;;;;;5035669;28;20120;-74
2023/05/06 00:17:08;;;;;;;0.30;0.30;;;11.60;99.90;;;;;;5029411;28;20091;-74
2023/05/06 00:19:33;;;;;;;0.30;0.30;;;11.60;99.90;;;;;;5025253;28;20444;-74
2023/05/06 00:21:59;;;;;;;;;;;11.50;99.90;;;;;;5010684;28;20047;-74
2023/05/06 00:24:25;;;;;;;1.00;0.38;;;11.40;99.90;;;;;;5045733;28;19920;-75
2023/05/06 00:26:51;;;;;;;0.30;0.30;;;11.40;99.90;;;;;;5027428;28;20048;-75
2023/05/06 00:29:17;;;;;;;0.20;0.20;;;11.40;99.90;;;;;;5023742;28;20202;-74
2023/05/06 00:31:44;;;;;;;0.30;0.30;;;11.40;99.90;;;;;;5012559;28;20115;-73
2023/05/06 00:34:09;;;;;;;0.70;0.70;;;11.40;99.90;;;;;;5046048;28;20041;-74
2023/05/06 00:36:36;;;;;;;0.73;0.55;;;11.40;99.90;;;;;;5025183;28;20060;-74
2023/05/06 00:39:01;;;;;;;0.30;0.30;;;11.40;99.90;;;;;;4989348;28;20490;-74
2023/05/06 00:41:31;;;;;;;0.30;0.30;;;11.20;99.90;;;;;;5029548;28;20048;-74
2023/05/06 00:43:57;;;;;;;0.40;0.40;;;11.20;99.90;;;;;;5024282;28;20495;-74
2023/05/06 00:46:23;;;;;;;0.35;0.35;;;11.10;99.90;;;;;;5022297;28;20056;-77
2023/05/06 00:48:49;;;;;;;0.22;0.22;;;11.00;99.90;;;;;;5010513;28;20038;-74
2023/05/06 00:51:15;;;;;;;;;;;11.00;99.90;;;;;;5027763;28;20115;-74
2023/05/06 00:53:41;;;;;;;0.30;0.30;;;11.00;99.90;;;;;;5029925;28;19968;-74
2023/05/06 00:56:07;;;;;;;0.40;0.40;;;11.00;99.90;;;;;;5025306;28;20424;-74
2023/05/06 00:58:33;;;;;;;0.32;0.32;;;11.00;99.90;;;;;;5029740;28;20040;-75
2023/05/06 01:01:00;;;;;;;0.40;0.40;;;11.00;99.90;;;;;;5031086;28;20068;-75
2023/05/06 01:03:26;;;;;;;0.40;0.40;;;11.00;99.90;;;;;;5009352;28;20056;-74
2023/05/06 01:06:16;;;;;;;0.30;0.30;;;11.10;99.90;;;;;;5027140;28;20478;-74
2023/05/06 01:09:13;;;;;;;0.30;0.30;;;10.20;99.90;;;;;;5028147;28;20067;-75
2023/05/06 01:12:15;;;;;;;0.30;0.30;;;11.00;99.90;;;;;;5026415;28;20045;-74
2023/05/06 01:15:08;;;;;;;0.38;0.38;;;11.10;99.90;;;;;;5027373;28;20041;-74
2023/05/06 01:17:37;;;;;;;0.38;0.38;;;11.10;99.90;;;;;;5010992;28;20041;-74
2023/05/06 01:20:05;;;;;;;0.50;0.50;;;11.10;99.90;;;;;;5027159;28;20044;-74
2023/05/06 01:22:35;;;;;;;0.30;0.30;;;11.00;99.90;;;;;;5015296;28;20038;-73
2023/05/06 01:25:00;;;;;;;0.40;0.40;;;11.10;99.90;;;;;;5012248;28;20125;-73
2023/05/06 01:27:27;;;;;;;0.40;0.40;;;11.10;99.90;;;;;;5022884;28;20123;-74
2023/05/06 01:29:53;;;;;;;0.50;0.50;;;11.10;99.90;;;;;;5022482;28;20056;-73
2023/05/06 01:32:32;;;;;;;0.60;0.60;;;11.10;99.90;;;;;;5025011;28;20136;-73
2023/05/06 01:35:15;;;;;;;2.08;0.70;;;11.20;99.90;;;;;;5025375;28;20127;-74
2023/05/06 01:37:51;;;;;;;0.47;0.47;;;11.20;99.90;;;;;;5021270;28;20507;-74
2023/05/06 01:40:17;;;;;;;0.30;0.30;;;11.30;99.90;;;;;;5003045;28;20498;-75
2023/05/06 01:42:48;;;;;;;0.40;0.40;;;11.30;99.90;;;;;;5028825;28;20438;-74
2023/05/06 01:45:15;;;;;;;2.42;0.63;;;11.30;99.90;;;;;;5024894;28;20422;-74
2023/05/06 01:47:45;;;;;;;0.50;0.50;;;11.40;99.90;;;;;;5028001;28;20565;-73
2023/05/06 01:50:11;;;;;;;2.03;0.68;;;11.40;99.90;;;;;;5027628;28;20054;-75
2023/05/06 01:52:37;;;;;;;0.55;0.55;;;11.30;99.90;;;;;;5028939;28;20087;-73
2023/05/06 01:55:03;;;;;;;0.30;0.30;;;11.30;99.90;;;;;;5027684;28;20072;-75
2023/05/06 01:57:28;;;;;;;0.40;0.40;;;11.20;99.90;;;;;;5024376;28;20604;-73
2023/05/06 01:59:54;;;;;;;0.50;0.50;;;11.20;99.90;;;;;;5027004;28;20046;-76
2023/05/06 02:02:20;;;;;;;0.45;0.45;;;11.10;99.90;;;;;;5028528;28;20102;-74
2023/05/06 02:04:45;;;;;;;0.40;0.40;;;11.00;99.90;;;;;;5012317;28;20475;-74
2023/05/06 02:07:11;;;;;;;0.40;0.40;;;10.90;99.90;;;;;;5006665;28;20171;-74
2023/05/06 02:09:37;;;;;;;0.45;0.45;;;10.80;99.90;;;;;;5008553;28;20382;-76
2023/05/06 02:12:02;;;;;;;0.40;0.40;;;10.80;99.90;;;;;;5025622;28;20041;-74
2023/05/06 02:14:28;;;;;;;0.30;0.30;;;10.60;99.90;;;;;;5007364;28;20049;-76
2023/05/06 02:16:54;;;;;;;0.30;0.30;;;10.60;99.90;;;;;;5027399;28;20160;-73
2023/05/06 02:19:20;;;;;;;0.40;0.40;;;10.50;99.90;;;;;;5027312;28;20037;-73
2023/05/06 02:21:45;;;;;;;0.30;0.30;;;10.50;99.90;;;;;;5027927;28;20139;-73
2023/05/06 02:24:11;;;;;;;0.55;0.45;;;10.40;99.90;;;;;;5025073;28;20127;-73
2023/05/06 02:26:37;;;;;;;0.30;0.30;;;10.40;99.90;;;;;;5007582;28;20112;-74
2023/05/06 02:29:02;;;;;;;0.45;0.45;;;10.30;99.90;;;;;;5011866;28;20044;-72
2023/05/06 02:31:28;;;;;;;0.30;0.30;;;10.20;99.90;;;;;;5025136;28;20128;-75
2023/05/06 02:33:54;;;;;;;0.38;0.38;;;10.20;99.90;;;;;;5021451;28;20046;-74
2023/05/06 02:36:19;;;;;;;0.38;0.38;;;10.20;99.90;;;;;;5009370;28;20061;-73
2023/05/06 02:38:45;;;;;;;0.40;0.40;;;10.20;99.90;;;;;;4998548;28;20539;-73
2023/05/06 02:41:11;;;;;;;0.40;0.40;;;10.20;99.90;;;;;;5023522;28;20037;-74
2023/05/06 02:43:37;;;;;;;0.30;0.30;;;10.20;99.90;;;;;;5014429;28;20098;-74
2023/05/06 02:46:02;;;;;;;0.30;0.30;;;10.00;99.90;;;;;;5013523;28;20118;-73
2023/05/06 02:48:28;;;;;;;0.52;0.52;;;10.00;99.90;;;;;;5044605;28;20086;-73
2023/05/06 02:50:54;;;;;;;0.40;0.40;;;9.90;99.90;;;;;;5026280;28;20037;-73
2023/05/06 02:53:19;;;;;;;0.47;0.47;;;9.90;99.90;;;;;;5029975;28;20041;-73
2023/05/06 02:55:45;;;;;;;0.30;0.30;;;9.90;99.90;;;;;;5030038;28;20041;-73
2023/05/06 02:58:11;;;;;;;0.30;0.30;;;9.80;99.90;;;;;;5014528;28;20123;-73
2023/05/06 03:00:36;;;;;;;0.43;0.43;;;9.70;99.90;;;;;;5028801;28;20091;-73
2023/05/06 03:03:02;;;;;;;0.30;0.30;;;9.70;99.90;;;;;;5023431;28;20436;-74
2023/05/06 03:05:28;;;;;;;;;;;9.60;99.90;;;;;;5046863;28;20057;-74
2023/05/06 03:07:54;;;;;;;0.40;0.40;;;9.60;99.90;;;;;;5030633;28;19935;-73
2023/05/06 03:10:20;;;;;;;0.38;0.38;;;9.50;99.90;;;;;;5011986;28;20049;-72
2023/05/06 03:12:45;;;;;;;0.50;0.50;;;9.50;99.90;;;;;;5025051;28;20143;-73
2023/05/06 03:15:11;;;;;;;0.43;0.43;;;9.50;99.90;;;;;;5014976;28;20045;-74
2023/05/06 03:17:37;;;;;;;0.60;0.60;;;9.40;99.90;;;;;;5029009;28;20033;-74
2023/05/06 03:20:03;;;;;;;0.45;0.45;;;9.40;99.90;;;;;;5028473;28;20556;-73
2023/05/06 03:22:29;;;;;;;0.40;0.40;;;9.50;99.90;;;;;;5028657;28;20518;-73
2023/05/06 03:24:55;;;;;;;0.28;0.28;;;9.50;99.90;;;;;;5029269;28;20080;-73
2023/05/06 03:27:20;;;;;;;0.30;0.30;;;9.50;99.90;;;;;;5032620;28;20044;-72
2023/05/06 03:29:46;;;;;;;0.40;0.40;;;9.50;99.90;;;;;;5026237;28;20071;-73
2023/05/06 03:32:11;;;;;;;0.40;0.40;;;9.50;99.90;;;;;;5030449;28;20152;-72
2023/05/06 03:34:37;;;;;;;0.57;0.57;;;9.50;99.90;;;;;;5024797;28;20045;-73
2023/05/06 03:37:03;;;;;;;0.20;0.20;;;9.50;99.90;;;;;;5023585;28;20436;-74
2023/05/06 03:39:28;;;;;;;0.40;0.40;;;9.50;99.90;;;;;;5026840;28;20041;-74
2023/05/06 03:41:54;;;;;;;0.40;0.40;;;9.50;99.90;;;;;;5031386;28;20441;-73
2023/05/06 03:44:20;;;;;;;0.60;0.60;;;9.50;99.90;;;;;;5026507;28;20256;-74
2023/05/06 03:46:45;;;;;;;0.30;0.30;;;9.50;99.90;;;;;;5022027;28;20053;-73
2023/05/06 03:49:12;;;;;;;0.40;0.40;;;9.60;99.90;;;;;;5012731;28;20067;-73
2023/05/06 03:51:37;;;;;;;;;;;9.50;99.90;;;;;;5027013;28;20504;-73
2023/05/06 03:54:03;;;;;;;0.50;0.50;;;9.60;99.90;;;;;;5011634;28;19923;-76
2023/05/06 03:56:29;;;;;;;0.50;0.50;;;9.50;99.90;;;;;;5028446;28;20048;-74
2023/05/06 03:58:55;;;;;;;0.52;0.52;;;9.50;99.90;;;;;;5011145;28;20045;-75
2023/05/06 04:01:20;;;;;;;0.50;0.50;;;9.50;99.90;;;;;;5030260;28;20041;-74
2023/05/06 04:03:46;;;;;;;0.50;0.50;;;9.50;99.90;;;;;;5028208;28;20119;-74
2023/05/06 04:06:12;;;;;;;0.40;0.40;;;9.50;99.90;;;;;;5024876;28;20120;-74
2023/05/06 04:08:38;;;;;;;0.52;0.52;;;9.50;99.90;;;;;;5027849;28;20071;-75
2023/05/06 04:11:04;;;;;;;0.47;0.47;;;9.50;99.90;;;;;;5025901;28;20040;-75
2023/05/06 04:13:31;;;;;;;0.40;0.40;;;9.50;99.90;;;;;;5026773;28;20037;-75
2023/05/06 04:15:57;;;;;;;;;;;9.60;99.90;;;;;;5026723;28;20036;-74
2023/05/06 04:18:23;;;;;;;0.30;0.30;;;9.60;99.90;;;;;;5028294;28;19924;-75
2023/05/06 04:20:49;;;;;;;0.50;0.50;;;9.60;99.90;;;;;;5024669;28;20086;-75
2023/05/06 04:23:15;;;;;;;;;;;9.70;99.90;;;;;;5027363;28;20029;-74
2023/05/06 04:25:41;;;;;;;0.50;0.50;;;9.70;99.90;;;;;;5029085;28;20395;-74
2023/05/06 04:28:11;;;;;;;0.60;0.60;;;9.70;99.90;;;;;;5029114;28;20044;-75
2023/05/06 04:30:36;;;;;;;0.30;0.30;;;9.70;99.90;;;;;;5008320;28;20041;-75
2023/05/06 04:33:02;;;;;;;0.30;0.30;;;9.80;99.90;;;;;;5010754;28;20102;-74
2023/05/06 04:35:28;;;;;;;0.50;0.50;;;9.80;99.90;;;;;;5014801;28;20052;-75
2023/05/06 04:37:55;;;;;;;0.40;0.40;;;9.90;99.90;;;;;;5011623;28;20061;-76
2023/05/06 04:40:22;;;;;;;0.35;0.35;;;9.90;99.90;;;;;;5029253;28;20367;-76
2023/05/06 04:42:47;;;;;;;0.30;0.30;;;9.90;99.90;;;;;;5030686;28;21461;-75
2023/05/06 04:45:13;;;;;;;0.40;0.40;;;9.90;99.90;;;;;;5031860;28;20043;-75
2023/05/06 04:47:39;;;;;;;0.30;0.30;;;9.90;99.90;;;;;;5026302;28;20041;-75
2023/05/06 04:50:06;;;;;;;0.40;0.40;;;9.90;99.90;;;;;;5027543;28;20044;-74
2023/05/06 04:52:31;;;;;;;0.47;0.47;;;9.90;99.90;;;;;;5011938;28;20424;-74
2023/05/06 04:54:57;;;;;;;0.30;0.30;;;10.00;99.90;;;;;;5011545;28;20045;-74
2023/05/06 04:57:23;;;;;;;0.30;0.30;;;10.00;99.90;;;;;;5028601;28;20420;-74
2023/05/06 04:59:48;;;;;;;0.40;0.40;;;10.00;99.90;;;;;;5007248;28;20482;-74
2023/05/06 05:02:14;;;;;;;0.40;0.40;;;10.10;99.90;;;;;;5028678;28;20037;-75
2023/05/06 05:04:40;;;;;;;0.32;0.32;;;10.20;99.90;;;;;;5028592;28;20440;-74
2023/05/06 05:07:06;;;;;;;0.40;0.40;;;10.20;99.90;;;;;;5011228;28;20040;-75
2023/05/06 05:09:32;;;;;;;;;;;10.30;99.90;;;;;;5025548;28;20101;-75
2023/05/06 05:12:00;;;;;;;0.30;0.30;;;10.40;99.90;;;;;;5028939;28;19921;-73
2023/05/06 05:14:25;;;;;;;0.40;0.40;;;10.50;99.90;;;;;;5027588;28;20390;-73
2023/05/06 05:16:51;;;;;;;0.40;0.40;;;10.60;99.90;;;;;;5025053;28;20154;-73
2023/05/06 05:19:17;;;;;;;0.40;0.40;;;10.70;99.90;;;;;;5028515;28;20037;-75
2023/05/06 05:21:42;;;;;;;0.50;0.50;;;10.80;99.90;;;;;;5003719;28;20069;-75
2023/05/06 05:24:08;;;;;;;0.32;0.32;;;10.90;99.90;;;;;;5024612;28;20599;-75
2023/05/06 05:26:34;;;;;;;0.40;0.40;;;11.00;99.90;;;;;;5024883;28;20562;-74
2023/05/06 05:28:59;;;;;;;0.30;0.30;;;11.30;99.90;;;;;;5025158;28;20098;-74
2023/05/06 05:31:25;;;;;;;;;;;11.40;99.90;;;;;;5028494;28;20132;-74
2023/05/06 05:33:50;;;;;;;0.38;0.38;;;11.60;99.90;;;;;;5040083;28;19928;-76
2023/05/06 05:36:16;;;;;;;0.40;0.40;;;11.70;99.90;;;;;;5026548;28;20040;-77
2023/05/06 05:38:42;;;;;;;0.30;0.30;;;11.90;99.90;;;;;;5024943;28;20049;-76
2023/05/06 05:41:08;;;;;;;0.40;0.40;;;11.90;99.90;;;;;;5005651;28;20041;-77
2023/05/06 05:43:33;;;;;;;0.77;0.60;;;12.00;99.90;;;;;;5028341;28;20052;-76
2023/05/06 05:45:59;;;;;;;;;;;12.10;99.90;;;;;;5022005;28;20080;-77
2023/05/06 05:48:25;;;;;;;0.30;0.30;;;12.20;99.90;;;;;;5039128;28;20266;-77
2023/05/06 05:50:50;;;;;;;0.40;0.40;;;12.20;99.90;;;;;;5027884;28;20066;-78
2023/05/06 05:53:16;;;;;;;0.30;0.30;;;12.20;99.90;;;;;;5027719;28;20051;-78
2023/05/06 05:55:42;;;;;;;0.30;0.30;;;12.20;99.90;;;;;;5028785;28;20502;-78
2023/05/06 05:58:08;;;;;;;;;;;12.20;99.90;;;;;;5026081;28;20108;-79
2023/05/06 06:00:34;;;;;;;0.40;0.40;;;12.20;99.90;;;;;;5030474;28;19928;-77
2023/05/06 06:03:00;;;;;;;;;;;12.20;99.90;;;;;;5022772;28;20065;-77
2023/05/06 06:05:25;;;;;;;0.22;0.22;;;12.20;99.90;;;;;;5020324;28;19921;-77
2023/05/06 06:07:51;;;;;;;0.50;0.50;;;12.20;99.90;;;;;;5007859;28;20033;-77
2023/05/06 06:10:17;;;;;;;0.40;0.40;;;12.20;99.90;;;;;;5027475;28;20052;-77
2023/05/06 06:12:43;;;;;;;0.88;0.80;;;12.20;99.90;;;;;;5011647;28;20537;-77
2023/05/06 06:15:09;;;;;;;;;;;12.30;99.90;;;;;;5012540;28;20450;-78
2023/05/06 06:17:35;;;;;;;0.88;0.85;;;12.40;99.90;;;;;;5025307;28;19931;-77
2023/05/06 06:20:00;;;;;;;;;;;12.50;99.90;;;;;;5025386;28;20152;-75
2023/05/06 06:22:26;;;;;;;0.20;0.20;;;12.60;99.90;;;;;;5027322;28;19920;-76
2023/05/06 06:24:55;;;;;;;0.50;0.50;;;12.60;99.90;;;;;;5023389;28;20084;-76
2023/05/06 06:27:20;;;;;;;0.38;0.38;;;12.70;99.90;;;;;;5021074;28;20513;-76
2023/05/06 06:29:49;;;;;;;0.30;0.30;;;12.70;99.90;;;;;;5025733;28;20049;-76
2023/05/06 06:32:15;;;;;;;0.30;0.30;;;12.70;99.90;;;;;;5024669;28;20041;-75
2023/05/06 06:34:41;;;;;;;0.32;0.32;;;12.80;99.90;;;;;;5024297;28;20098;-75
2023/05/06 06:37:09;;;;;;;1.45;0.75;;;12.90;99.90;;;;;;5002062;28;20628;-76
2023/05/06 06:39:35;;;;;;;0.20;0.20;;;12.90;99.90;;;;;;5036660;28;20132;-76
2023/05/06 06:42:05;;;;;;;0.55;0.47;;;13.00;99.90;;;;;;5011350;28;20145;-76
2023/05/06 06:44:32;;;;;;;0.38;0.38;;;13.00;99.90;;;;;;4999459;28;20045;-77
2023/05/06 06:46:58;;;;;;;0.80;0.80;;;13.00;99.90;;;;;;5027563;28;20056;-75
2023/05/06 06:49:25;;;;;;;0.47;0.47;;;13.10;99.90;;;;;;5027280;28;20044;-74
2023/05/06 06:51:51;;;;;;;0.30;0.30;;;13.10;99.90;;;;;;5037332;28;20049;-74
2023/05/06 06:54:16;;;;;;;0.28;0.28;;;13.20;99.90;;;;;;5033388;28;20055;-75
2023/05/06 06:56:42;;;;;;;;;;;13.20;99.90;;;;;;5014157;28;20462;-75
2023/05/06 06:59:08;;;;;;;0.40;0.40;;;13.20;99.90;;;;;;5010706;28;19921;-74
2023/05/06 07:01:33;;;;;;;;;;;13.30;99.90;;;;;;4996271;28;20402;-76
2023/05/06 07:03:59;;;;;;;0.32;0.32;;;13.40;99.90;;;;;;5009099;28;20019;-75
2023/05/06 07:06:25;;;;;;;0.40;0.40;;;13.50;99.90;;;;;;5023510;28;20041;-76
2023/05/06 07:08:50;;;;;;;;;;;13.60;99.90;;;;;;5025949;28;20030;-74
2023/05/06 07:11:16;;;;;;;1.23;0.40;;;13.70;99.90;;;;;;5027220;28;19920;-75
2023/05/06 07:13:41;;;;;;;0.45;0.45;;;13.80;99.90;;;;;;5023719;28;20045;-77
2023/05/06 07:16:07;;;;;;;;;;;13.90;99.90;;;;;;5026512;28;20127;-77
2023/05/06 07:18:33;;;;;;;0.30;0.30;;;13.90;99.90;;;;;;5040548;28;20015;-77
2023/05/06 07:20:58;;;;;;;;;;;14.00;99.90;;;;;;5006768;28;20479;-77
2023/05/06 07:23:24;;;;;;;0.65;0.65;;;14.00;99.90;;;;;;5008682;28;19924;-78
2023/05/06 07:25:49;;;;;;;;;;;14.00;99.90;;;;;;5030846;28;20064;-75
2023/05/06 07:28:15;;;;;;;0.30;0.30;;;14.00;99.90;;;;;;5024581;28;19927;-75
2023/05/06 07:30:41;;;;;;;;;;;14.00;99.90;;;;;;5028895;28;20037;-75
2023/05/06 07:33:07;;;;;;;0.40;0.40;;;13.90;99.90;;;;;;5029809;28;19955;-75
2023/05/06 07:35:32;;;;;;;;;;;13.90;99.90;;;;;;5040030;28;20049;-75
2023/05/06 07:37:58;;;;;;;0.40;0.40;;;13.80;99.90;;;;;;5025457;28;19932;-75
2023/05/06 07:40:24;;;;;;;;;;;13.70;99.90;;;;;;5023280;28;20501;-75
2023/05/06 07:42:49;;;;;;;0.30;0.30;;;13.70;99.90;;;;;;5025303;28;19924;-75
2023/05/06 07:45:15;;;;;;;0.30;0.30;;;13.80;99.90;;;;;;5024447;28;20048;-75
2023/05/06 07:47:41;;;;;;;0.30;0.30;;;13.80;99.90;;;;;;5023999;28;20045;-76
2023/05/06 07:50:07;;;;;;;;;;;13.90;99.90;;;;;;5009434;28;20052;-75
2023/05/06 07:52:33;;;;;;;0.10;0.10;;;14.00;99.90;;;;;;5011796;28;19971;-76
2023/05/06 07:54:58;;;;;;;;;;;14.10;99.90;;;;;;5027852;28;20119;-74
2023/05/06 07:57:24;;;;;;;0.30;0.30;;;14.20;99.90;;;;;;5039473;28;19932;-74
2023/05/06 07:59:50;;;;;;;0.30;0.30;;;14.30;99.90;;;;;;5008858;28;20053;-74
2023/05/06 08:02:17;;;;;;;0.20;0.20;;;14.30;99.90;;;;;;5024219;28;20047;-75
2023/05/06 08:04:43;;;;;;;0.20;0.20;;;14.50;99.90;;;;;;5021447;28;20046;-75
2023/05/06 08:07:10;;;;;;;0.30;0.30;;;14.60;99.90;;;;;;5016675;28;20056;-74
2023/05/06 08:09:36;;;;;;;0.60;0.60;;;14.70;99.90;;;;;;5030819;28;20117;-75
2023/05/06 08:12:02;;;;;;;0.38;0.38;;;14.90;99.90;;;;;;5007663;28;20196;-74
2023/05/06 08:14:27;;;;;;;;;;;15.00;99.90;;;;;;5004923;28;20036;-75
2023/05/06 08:16:54;;;;;;;0.52;0.52;;;15.00;99.90;;;;;;5021339;28;19924;-75
2023/05/06 08:19:20;;;;;;;;;;;15.10;99.90;;;;;;5023427;28;20343;-76
2023/05/06 08:21:47;;;;;;;0.70;0.50;;;15.20;99.90;;;;;;5027944;28;19925;-79
2023/05/06 08:24:13;;;;;;;0.30;0.30;;;15.40;99.90;;;;;;5000059;28;20211;-75
2023/05/06 08:26:39;;;;;;;0.50;0.50;;;15.50;99.90;;;;;;5017891;28;20535;-75
2023/05/06 08:29:06;;;;;;;0.30;0.30;;;15.40;99.90;;;;;;5023285;28;20040;-75
2023/05/06 08:31:31;;;;;;;0.30;0.30;;;16.00;99.90;;;;;;5024554;28;20084;-75
2023/05/06 08:33:57;;;;;;;0.28;0.28;;;15.70;99.90;;;;;;5023272;28;20087;-76
2023/05/06 08:36:22;;;;;;;;;;;15.70;99.90;;;;;;5023896;28;20064;-75
2023/05/06 08:38:49;;;;;;;0.25;0.25;;;15.70;99.90;;;;;;5023796;28;19966;-75
2023/05/06 08:41:20;;;;;;;0.30;0.30;;;15.80;99.90;;;;;;5016060;28;20482;-76
2023/05/06 08:43:47;;;;;;;0.28;0.28;;;15.80;99.90;;;;;;5015300;28;20057;-74
2023/05/06 08:46:14;;;;;;;0.30;0.30;;;15.80;99.90;;;;;;5024279;28;20147;-75
2023/05/06 08:48:39;;;;;;;;;;;15.90;99.90;;;;;;5018275;28;20040;-75
2023/05/06 08:51:06;;;;;;;0.30;0.30;;;16.00;99.90;;;;;;4997661;28;19930;-74
2023/05/06 08:53:33;;;;;;;0.73;0.73;;;16.00;99.90;;;;;;5017234;28;20048;-75
2023/05/06 08:56:07;;;;;;;0.32;0.30;;;16.10;99.90;;;;;;4995739;28;20879;-74
2023/05/06 08:58:34;;;;;;;0.20;0.20;;;16.20;99.90;;;;;;5017134;28;20033;-75
2023/05/06 09:01:02;;;;;;;0.30;0.30;;;16.20;99.90;;;;;;5024811;28;20490;-75
2023/05/06 09:03:27;;;;;;;0.25;0.25;;;16.30;99.90;;;;;;5041106;28;20437;-75
2023/05/06 09:05:55;;;;;;;0.30;0.30;;;16.20;99.90;;;;;;5021352;28;20044;-75
2023/05/06 09:08:20;;;;;;;0.85;0.85;;;16.20;99.90;;;;;;5020126;28;20500;-75
2023/05/06 09:10:46;;;;;;;0.30;0.30;;;16.20;99.90;;;;;;5005377;28;20123;-74
2023/05/06 09:13:12;;;;;;;;;;;16.20;99.90;;;;;;5022923;28;20055;-74
2023/05/06 09:15:43;;;;;;;0.65;0.65;;;16.10;99.90;;;;;;5018700;28;19946;-75
2023/05/06 09:18:10;;;;;;;0.65;0.47;;;16.10;99.90;;;;;;5023222;28;20048;-74
2023/05/06 09:20:41;;;;;;;0.32;0.32;;;16.00;99.90;;;;;;5038012;28;20041;-75
2023/05/06 09:23:08;;;;;;;0.30;0.30;;;16.00;99.90;;;;;;5023359;28;20377;-75
2023/05/06 09:25:35;;;;;;;0.73;0.40;;;16.20;99.90;;;;;;5020107;28;20375;-75
2023/05/06 09:28:06;;;;;;;0.35;0.35;;;16.30;99.90;;;;;;5021005;28;20080;-75
2023/05/06 09:30:32;;;;;;;0.20;0.20;;;16.40;99.90;;;;;;5021394;28;20051;-75
2023/05/06 09:32:58;;;;;;;;;;;16.50;99.90;;;;;;5020030;28;20493;-75
2023/05/06 09:35:28;;;;;;;0.73;0.73;;;16.70;99.90;;;;;;5018547;28;19932;-74
2023/05/06 09:37:55;;;;;;;0.55;0.55;;;16.90;99.90;;;;;;5020179;28;21524;-75
2023/05/06 09:40:23;;;;;;;0.28;0.28;;;17.00;99.90;;;;;;5039674;28;20037;-75
2023/05/06 09:42:50;;;;;;;0.20;0.20;;;17.30;99.90;;;;;;5021112;28;20029;-75
2023/05/06 09:45:16;;;;;;;0.60;0.60;;;17.60;99.90;;;;;;5018559;28;20041;-75
2023/05/06 09:47:43;;;;;;;1.17;1.05;;;17.70;99.90;;;;;;5023652;28;20048;-75
2023/05/06 09:50:12;;;;;;;0.73;0.73;;;17.90;99.90;;;;;;5024101;28;20052;-74
2023/05/06 09:52:37;;;;;;;0.90;0.90;;;18.10;99.90;;;;;;5037026;28;20033;-75
2023/05/06 09:55:03;;;;;;;;;;;18.30;99.90;;;;;;5020139;28;20041;-75
2023/05/06 09:57:30;;;;;;;0.88;0.88;;;18.30;99.90;;;;;;5022606;28;20169;-74
2023/05/06 09:59:57;;;;;;;0.52;0.52;;;18.30;99.90;;;;;;4985095;28;20606;-74
2023/05/06 10:02:22;;;;;;;2.38;1.17;;;18.30;99.90;;;;;;5022394;28;20115;-75
2023/05/06 10:04:48;;;;;;;;;;;18.40;99.90;;;;;;5026564;28;20383;-75
2023/05/06 10:07:18;;;;;;;0.70;0.70;;;18.50;99.90;;;;;;5023521;28;19947;-74
2023/05/06 10:09:45;;;;;;;3.00;0.80;;;18.80;99.90;;;;;;5018582;28;20053;-75
2023/05/06 10:12:12;;;;;;;0.47;0.47;;;19.10;99.90;;;;;;5024969;28;20045;-74
2023/05/06 10:14:38;;;;;;;1.02;0.25;;;19.40;99.90;;;;;;5026138;28;20043;-74
2023/05/06 10:17:11;;;;;;;1.40;1.30;;;19.50;99.90;;;;;;5025277;28;20049;-75
2023/05/06 10:19:47;;;;;;;1.33;1.23;;;19.50;99.90;;;;;;5027165;28;20041;-75
2023/05/06 10:22:27;;;;;;;0.50;0.50;;;19.50;99.90;;;;;;5026409;28;20445;-75
2023/05/06 10:25:05;;;;;;;0.63;0.63;;;19.50;99.90;;;;;;5025402;28;20037;-75
2023/05/06 10:27:38;;;;;;;0.70;0.70;;;19.60;99.90;;;;;;5019961;28;20041;-74
2023/05/06 10:30:05;;;;;;;1.10;0.95;;;19.70;99.90;;;;;;5023789;28;20044;-74
2023/05/06 10:32:31;;;;;;;0.43;0.43;;;19.60;99.90;;;;;;5023030;28;21623;-75
2023/05/06 10:35:10;;;;;;;0.28;0.28;;;19.60;99.90;;;;;;5027736;28;20133;-75
2023/05/06 10:37:38;;;;;;;1.10;0.60;;;19.70;99.90;;;;;;5021886;28;20148;-75
2023/05/06 10:40:04;;;;;;;1.05;0.77;;;19.80;99.90;;;;;;5018693;28;20076;-75
2023/05/06 10:42:34;;;;;;;3.22;1.77;;;19.80;99.90;;;;;;5038455;28;20449;-74
2023/05/06 10:45:02;;;;;;;0.30;0.30;;;19.90;99.90;;;;;;5045637;28;20120;-75
2023/05/06 10:47:56;;;;;;;0.93;0.93;;;20.10;99.90;;;;;;5028284;28;20136;-75
2023/05/06 10:50:26;;;;;;;0.57;0.57;;;20.20;99.90;;;;;;5021657;28;20063;-75
2023/05/06 10:52:54;;;;;;;0.20;0.20;;;20.50;99.90;;;;;;5022655;28;20769;-75
2023/05/06 10:55:29;;;;;;;0.28;0.28;;;20.80;99.90;;;;;;5034814;28;20052;-75
2023/05/06 10:58:03;;;;;;;0.88;0.47;;;21.00;99.90;;;;;;5020733;28;20407;-75
2023/05/06 11:00:33;;;;;;;0.77;0.77;;;20.90;99.90;;;;;;5022834;28;20041;-75
2023/05/06 11:03:05;;;;;;;0.40;0.40;;;20.90;99.90;;;;;;5012555;28;20055;-76
2023/05/06 11:05:34;;;;;;;0.40;0.40;;;21.10;99.90;;;;;;5023572;28;20037;-75
2023/05/06 11:08:10;;;;;;;0.35;0.32;;;21.40;99.90;;;;;;5019891;28;20041;-75
2023/05/06 11:10:36;;;;;;;;;;;21.80;99.90;;;;;;5029006;28;20052;-75
2023/05/06 11:13:23;;;;;;;0.20;0.20;;;22.00;99.90;;;;;;5012669;28;19917;-76
2023/05/06 11:15:50;;;;;;;0.60;0.60;;;21.90;99.90;;;;;;5023498;28;20398;-77
2023/05/06 11:18:29;;;;;;;0.30;0.30;;;21.70;99.90;;;;;;5028393;28;20455;-76
2023/05/06 11:21:01;;;;;;;0.40;0.40;;;21.20;99.90;;;;;;5010503;28;20059;-76
2023/05/06 11:23:48;;;;;;;0.52;0.52;;;20.90;99.90;;;;;;5010514;28;20048;-76
2023/05/06 11:26:14;;;;;;;8.20;1.17;;;20.70;99.90;;;;;;5026242;28;20056;-76
2023/05/06 11:28:48;;;;;;;0.30;0.30;;;20.60;99.90;;;;;;5011655;28;20646;-76
2023/05/06 11:31:14;;;;;;;0.20;0.20;;;20.50;99.90;;;;;;5027448;28;20044;-76
2023/05/06 11:33:53;;;;;;;0.47;0.47;;;20.40;99.90;;;;;;5031239;28;20053;-76
2023/05/06 11:36:20;;;;;;;0.28;0.28;;;20.30;99.90;;;;;;5026736;28;20049;-76
2023/05/06 11:38:55;;;;;;;0.20;0.20;;;20.30;99.90;;;;;;5045775;28;20057;-76
2023/05/06 11:41:22;;;;;;;0.30;0.30;;;20.30;99.90;;;;;;5024076;28;20045;-76
2023/05/06 11:43:52;;;;;;;0.20;0.20;;;20.30;99.90;;;;;;5035008;28;20055;-75
2023/05/06 11:46:19;;;;;;;0.30;0.30;;;20.20;99.90;;;;;;5029587;28;20042;-75
2023/05/06 11:48:45;;;;;;;0.65;0.52;;;19.90;99.90;;;;;;5012104;28;20340;-76
2023/05/06 11:51:11;;;;;;;0.30;0.30;;;19.60;99.90;;;;;;5031721;28;20067;-75
2023/05/06 11:53:37;;;;;;;0.70;0.70;;;19.50;99.90;;;;;;5029399;28;20037;-76
2023/05/06 11:56:05;;;;;;;0.82;0.82;;;19.20;99.90;;;;;;5014838;28;20053;-76
2023/05/06 11:58:31;;;;;;;0.75;0.75;;;19.10;99.90;;;;;;5012824;28;20044;-77
2023/05/06 12:00:59;;;;;;;0.52;0.50;;;19.00;99.90;;;;;;5028132;28;20037;-77
2023/05/06 12:03:27;;;;;;;0.40;0.40;;;18.90;99.90;;;;;;5026806;28;20202;-76
2023/05/06 12:05:53;;;;;;;0.30;0.30;;;18.80;99.90;;;;;;5024423;28;20438;-76
2023/05/06 12:08:22;;;;;;;2.10;0.95;;;18.60;99.90;;;;;;5026069;28;20407;-76
2023/05/06 12:10:50;;;;;;;0.70;0.70;;;18.40;99.90;;;;;;5009371;28;20049;-76
2023/05/06 12:13:17;;;;;;;0.40;0.40;;;18.30;99.90;;;;;;5022036;28;20471;-76
2023/05/06 12:15:44;;;;;;;0.30;0.30;;;18.10;99.90;;;;;;5026578;28;20503;-76
2023/05/06 12:18:11;;;;;;;0.40;0.40;;;18.00;99.90;;;;;;5013398;28;20071;-76
2023/05/06 12:20:37;;;;;;;0.30;0.30;;;17.90;99.90;;;;;;5029326;28;20047;-76
2023/05/06 12:23:13;;;;;;;0.20;0.20;;;17.80;99.90;;;;;;5027243;28;20037;-76
2023/05/06 12:25:40;;;;;;;0.35;0.35;;;17.70;99.90;;;;;;5027917;28;20395;-76
2023/05/06 12:28:14;;;;;;;0.70;0.40;;;17.60;99.90;;;;;;5028522;28;20045;-75
2023/05/06 12:30:40;;;;;;;0.52;0.52;;;17.40;99.90;;;;;;5023950;28;20040;-75
2023/05/06 12:33:08;;;;;;;;;;;17.30;99.90;;;;;;5027455;28;20382;-75
2023/05/06 12:35:34;;;;;;;0.90;0.90;;;17.10;99.90;;;;;;5027199;28;20232;-76
2023/05/06 12:38:07;;;;;;;;;;;16.90;99.90;;;;;;5025786;28;20148;-76
2023/05/06 12:40:32;;;;;;;0.35;0.35;;;16.80;99.90;;;;;;5025176;28;20317;-76
2023/05/06 12:42:58;;;;;;;;;;;16.60;99.90;;;;;;5046684;28;20073;-76
2023/05/06 12:45:24;;;;;;;1.02;0.90;;;16.20;99.90;;;;;;5027895;28;19923;-76
2023/05/06 12:47:54;;;;;;;;;;;15.80;99.90;;;;;;5008501;28;20049;-76
2023/05/06 12:50:38;;;;;;;0.73;0.73;;;15.50;99.90;;;;;;5025618;28;20808;-75
2023/05/06 12:53:06;;;;;;;0.40;0.40;;;15.40;99.90;;;;;;5024670;28;20071;-75
2023/05/06 12:55:32;;;;;;;1.08;1.02;;;15.50;99.90;;;;;;5010200;28;20047;-76
2023/05/06 12:57:58;;;;;;;0.50;0.50;;;15.50;99.90;;;;;;5029234;28;20421;-75